Terminal Aerodrome Forecast
Issued by NWS

Home | Current Version | Previous Version | Text Only | Print | Product List | Glossary On
Versions: 1 2 3 4 5 6 7 8 9 10 11 12 13 14
441
FTUS46 KMTR 272330
TAFOAK
TAF
KOAK 272330Z 2800/2906 30015KT P6SM SCT030 BKN250
     FM280300 30017G25KT P6SM FEW030
     FM281200 32014KT P6SM SKC
     FM282200 29015G22KT P6SM SKC
     FM290400 28015KT P6SM SKC=

USA.gov is the U.S. government's official web portal to all federal, state and local government web resources and services.